Time;durP1;ratioP1;P1;durP2;ratioP2;P2;SDS_P1;SDS_P2;PMS_P1;PMS_P2;Temp;Humidity;BMP_temperature;BMP_pressure;BME280_temperature;BME280_humidity;BME280_pressure;Samples;Min_cycle;Max_cycle;Signal;HPM_P1;HPM_P2
2022/12/24 00:00:16;;;;;;;4.40;1.57;;;;;;;10.04;85.64;95000.16;4786574;30;20238;-82
2022/12/24 00:02:41;;;;;;;11.57;3.57;;;;;;;9.97;86.19;94999.97;4801611;29;20239;-82
2022/12/24 00:05:07;;;;;;;11.57;2.40;;;;;;;10.03;85.75;95001.13;4784516;30;20191;-82
2022/12/24 00:07:33;;;;;;;8.53;2.63;;;;;;;9.96;86.21;95011.31;4785928;29;20222;-81
2022/12/24 00:09:58;;;;;;;7.93;1.80;;;;;;;9.91;86.73;94998.81;4784250;30;20215;-81
2022/12/24 00:12:23;;;;;;;8.00;1.87;;;;;;;10.00;85.67;95009.22;4786755;30;20203;-80
2022/12/24 00:14:48;;;;;;;6.13;2.30;;;;;;;9.94;85.95;95001.09;4784709;30;20207;-81
2022/12/24 00:17:14;;;;;;;10.57;1.97;;;;;;;10.02;85.58;95013.28;4785825;29;20708;-81
2022/12/24 00:19:39;;;;;;;8.00;2.13;;;;;;;9.92;85.72;94999.63;4784918;30;20199;-80
2022/12/24 00:22:04;;;;;;;6.03;1.60;;;;;;;10.00;85.90;95006.63;4786375;30;20202;-82
2022/12/24 00:24:30;;;;;;;9.33;2.33;;;;;;;9.92;85.83;95008.22;4786149;30;20257;-80
2022/12/24 00:26:55;;;;;;;9.10;2.00;;;;;;;9.89;86.10;95008.53;4770764;30;20218;-82
2022/12/24 00:29:20;;;;;;;8.77;2.10;;;;;;;9.97;85.73;94999.97;4772147;30;20638;-81
2022/12/24 00:31:46;;;;;;;9.57;2.37;;;;;;;9.89;85.91;95000.75;4791016;29;20672;-81
2022/12/24 00:34:11;;;;;;;12.93;2.33;;;;;;;9.90;86.01;94999.78;4780212;30;20202;-79
2022/12/24 00:36:36;;;;;;;10.10;2.60;;;;;;;9.85;86.17;95001.22;4786397;29;20226;-81
2022/12/24 00:39:02;;;;;;;11.57;2.33;;;;;;;9.86;86.36;94998.47;4785987;30;20198;-82
2022/12/24 00:41:30;;;;;;;9.37;2.50;;;;;;;9.87;86.60;95004.47;4800513;29;20425;-80
2022/12/24 00:43:58;;;;;;;7.03;2.23;;;;;;;9.96;86.28;95021.69;4786058;30;20374;-81
2022/12/24 00:46:25;;;;;;;13.33;2.40;;;;;;;9.96;86.32;95028.66;4799841;29;20204;-81
2022/12/24 00:48:50;;;;;;;9.00;1.87;;;;;;;9.91;88.06;95037.72;4785627;29;20242;-80
2022/12/24 00:51:16;;;;;;;9.37;2.83;;;;;;;9.98;89.60;95035.28;4785296;30;20270;-79
2022/12/24 00:53:41;;;;;;;11.87;2.27;;;;;;;9.89;90.84;95039.66;4785993;30;20218;-80
2022/12/24 00:56:07;;;;;;;9.23;2.47;;;;;;;10.01;90.86;95034.19;4797986;29;20215;-80
2022/12/24 00:58:33;;;;;;;9.07;2.30;;;;;;;9.88;92.42;95048.38;4779116;30;20617;-80
2022/12/24 01:00:58;;;;;;;6.27;2.23;;;;;;;9.84;93.21;95057.47;4771950;30;20226;-81
2022/12/24 01:03:34;;;;;;;11.47;2.33;;;;;;;9.69;94.74;95059.00;4785198;30;20202;-81
2022/12/24 01:05:59;;;;;;;10.37;2.80;;;;;;;9.68;95.95;95072.94;4773113;30;20225;-82
2022/12/24 01:08:24;;;;;;;11.90;3.53;;;;;;;9.66;96.72;95069.69;4787114;30;20219;-81
2022/12/24 01:10:50;;;;;;;9.10;2.37;;;;;;;9.66;97.18;95074.88;4785845;30;20234;-81
2022/12/24 01:13:15;;;;;;;11.93;2.40;;;;;;;9.63;98.08;95088.97;4787847;30;20214;-80
2022/12/24 01:15:40;;;;;;;11.30;2.40;;;;;;;9.54;100.00;95112.34;4788245;29;20230;-81
2022/12/24 01:18:05;;;;;;;11.13;2.80;;;;;;;9.42;100.00;95118.75;4787923;30;20669;-81
2022/12/24 01:20:32;;;;;;;13.07;2.73;;;;;;;9.31;100.00;95109.47;4786877;30;20210;-80
2022/12/24 01:22:57;;;;;;;9.10;2.60;;;;;;;9.27;100.00;95121.06;4786294;29;20581;-79
2022/12/24 01:25:23;;;;;;;9.30;2.40;;;;;;;9.19;100.00;95121.00;4795357;29;20200;-81
2022/12/24 01:27:48;;;;;;;15.17;2.80;;;;;;;9.06;100.00;95111.84;4786337;30;20199;-80
2022/12/24 01:30:14;;;;;;;11.10;2.53;;;;;;;9.05;100.00;95118.00;4786633;30;20353;-80
2022/12/24 01:32:39;;;;;;;13.70;2.33;;;;;;;9.16;100.00;95132.50;4786685;29;20196;-81
2022/12/24 01:35:05;;;;;;;10.63;2.57;;;;;;;9.08;100.00;95130.63;4787127;30;20206;-81
2022/12/24 01:37:30;;;;;;;10.73;2.73;;;;;;;9.12;100.00;95123.41;4788394;29;20216;-81
2022/12/24 01:43:22;;;;;;;12.80;2.80;;;;;;;9.01;100.00;95141.72;4786971;30;20187;-80
2022/12/24 01:45:50;;;;;;;8.67;2.50;;;;;;;9.01;100.00;95152.09;4786259;29;20206;-80
2022/12/24 01:48:21;;;;;;;9.73;2.63;;;;;;;8.98;100.00;95153.22;4786720;30;20223;-80
2022/12/24 01:50:47;;;;;;;9.90;2.37;;;;;;;8.81;100.00;95141.06;4787095;30;20538;-80
2022/12/24 01:53:13;;;;;;;6.73;2.00;;;;;;;8.78;100.00;95149.13;4786706;29;20218;-79
2022/12/24 01:55:39;;;;;;;12.60;2.57;;;;;;;8.94;100.00;95157.06;4788474;29;20752;-81
2022/12/24 01:58:05;;;;;;;10.27;2.97;;;;;;;8.79;100.00;95158.53;4789163;30;20290;-81
2022/12/24 02:00:30;;;;;;;10.53;2.20;;;;;;;8.85;100.00;95146.78;4789380;30;20293;-80
2022/12/24 02:02:56;;;;;;;12.07;2.70;;;;;;;8.69;100.00;95162.94;4789487;29;20202;-79
2022/12/24 02:05:29;;;;;;;12.37;2.90;;;;;;;8.81;100.00;95156.59;4787249;29;20291;-80
2022/12/24 02:07:55;;;;;;;8.20;2.27;;;;;;;8.80;100.00;95155.78;4790343;29;20244;-80
2022/12/24 02:10:21;;;;;;;10.23;2.50;;;;;;;8.64;100.00;95159.97;4788204;29;20610;-80
2022/12/24 02:12:46;;;;;;;12.50;3.30;;;;;;;8.77;100.00;95163.03;4788622;30;20199;-79
2022/12/24 02:15:13;;;;;;;10.53;3.23;;;;;;;8.55;100.00;95163.41;4796600;29;20211;-80
2022/12/24 02:17:52;;;;;;;14.10;3.37;;;;;;;8.62;100.00;95170.47;4788202;29;20231;-81
2022/12/24 02:20:45;;;;;;;15.27;3.63;;;;;;;8.62;100.00;95169.66;4788217;29;20286;-81
2022/12/24 02:23:38;;;;;;;8.47;3.00;;;;;;;8.64;100.00;95176.31;4788377;30;20618;-79
2022/12/24 02:26:23;;;;;;;10.27;3.10;;;;;;;8.48;100.00;95161.44;4785483;29;20290;-80
2022/12/24 02:29:03;;;;;;;13.10;4.20;;;;;;;8.50;100.00;95169.84;4788537;30;20235;-80
2022/12/24 02:31:37;;;;;;;19.40;3.97;;;;;;;8.58;100.00;95163.16;4787605;30;20259;-80
2022/12/24 02:34:06;;;;;;;13.10;3.23;;;;;;;8.46;100.00;95162.50;4787360;30;20278;-78
2022/12/24 02:36:37;;;;;;;15.87;2.80;;;;;;;8.42;100.00;95172.34;4786940;29;20219;-79
2022/12/24 02:39:38;;;;;;;14.63;3.60;;;;;;;8.50;100.00;95179.41;4788052;30;20195;-81
2022/12/24 02:42:05;;;;;;;12.13;2.57;;;;;;;8.40;100.00;95191.56;4801049;29;20668;-80
2022/12/24 02:44:34;;;;;;;19.73;3.23;;;;;;;8.46;100.00;95207.31;4787711;30;20213;-79
2022/12/24 02:47:00;;;;;;;12.77;3.70;;;;;;;8.41;100.00;95214.72;4787154;29;20207;-80
2022/12/24 02:49:25;;;;;;;11.17;3.00;;;;;;;8.44;100.00;95205.84;4787611;30;20207;-79
2022/12/24 02:51:51;;;;;;;11.80;2.90;;;;;;;8.36;100.00;95201.38;4787686;30;20569;-79
2022/12/24 02:54:16;;;;;;;14.10;3.47;;;;;;;8.33;100.00;95203.41;4786625;30;20713;-79
2022/12/24 02:56:52;;;;;;;12.50;3.40;;;;;;;8.46;100.00;95207.31;4782303;29;20243;-79
2022/12/24 02:59:26;;;;;;;12.67;3.67;;;;;;;8.44;100.00;95195.50;4786272;29;20191;-79
2022/12/24 03:02:18;;;;;;;12.17;3.17;;;;;;;8.40;100.00;95199.34;4788582;29;20198;-80
2022/12/24 03:05:26;;;;;;;9.83;2.83;;;;;;;8.40;100.00;95205.31;4785626;29;20209;-80
2022/12/24 03:08:20;;;;;;;15.80;3.27;;;;;;;8.44;100.00;95211.81;4787879;30;20194;-79
2022/12/24 03:10:51;;;;;;;13.80;3.20;;;;;;;8.48;100.00;95200.25;4787459;30;20207;-80
2022/12/24 03:13:17;;;;;;;12.33;2.80;;;;;;;8.48;100.00;95196.81;4786932;29;20282;-81
2022/12/24 03:15:44;;;;;;;14.27;3.50;;;;;;;8.49;100.00;95216.59;4786491;29;20280;-80
2022/12/24 03:18:11;;;;;;;12.87;3.40;;;;;;;8.51;99.97;95225.03;4783943;30;20894;-80
2022/12/24 03:20:44;;;;;;;13.27;3.10;;;;;;;8.44;100.00;95231.72;4786704;30;20257;-81
2022/12/24 03:23:09;;;;;;;11.90;2.53;;;;;;;8.64;99.10;95225.50;4769530;30;20198;-79
2022/12/24 03:25:39;;;;;;;19.37;3.73;;;;;;;8.58;100.00;95217.50;4791339;29;20194;-79
2022/12/24 03:28:05;;;;;;;14.43;3.93;;;;;;;8.68;99.29;95219.09;4786197;30;20246;-80
2022/12/24 03:30:30;;;;;;;13.40;3.80;;;;;;;8.68;99.08;95223.44;4786571;30;20195;-81
2022/12/24 03:32:57;;;;;;;12.43;3.23;;;;;;;8.68;99.35;95226.84;4787725;29;20543;-79
2022/12/24 03:35:22;;;;;;;13.37;3.70;;;;;;;8.75;99.65;95230.50;4785648;29;20198;-80
2022/12/24 03:37:47;;;;;;;17.17;3.07;;;;;;;8.69;99.63;95250.97;4786500;30;20195;-80
2022/12/24 03:40:13;;;;;;;16.37;3.67;;;;;;;8.70;99.21;95252.59;4786121;30;20187;-80
2022/12/24 03:42:38;;;;;;;18.00;3.40;;;;;;;8.72;99.59;95250.66;4776063;30;20568;-79
2022/12/24 03:45:04;;;;;;;14.67;3.50;;;;;;;8.78;99.00;95263.03;4785615;30;20235;-79
2022/12/24 03:47:30;;;;;;;14.37;3.60;;;;;;;8.85;98.89;95255.53;4787437;29;20222;-80
2022/12/24 03:49:55;;;;;;;19.57;4.07;;;;;;;8.86;98.74;95252.78;4787301;30;20207;-79
2022/12/24 03:52:20;;;;;;;16.77;3.20;;;;;;;8.94;98.06;95249.47;4787388;30;20218;-80
2022/12/24 03:54:48;;;;;;;13.83;3.30;;;;;;;8.90;98.54;95258.47;4785855;30;20208;-81
2022/12/24 03:57:13;;;;;;;13.30;3.03;;;;;;;8.86;99.00;95257.97;4780429;30;20302;-82
2022/12/24 03:59:39;;;;;;;19.73;3.67;;;;;;;8.89;98.27;95267.22;4787505;29;20724;-81
2022/12/24 04:02:04;;;;;;;14.93;3.07;;;;;;;8.72;99.59;95261.03;4774153;30;20203;-81
2022/12/24 04:04:31;;;;;;;13.33;2.77;;;;;;;8.93;97.86;95269.38;4787086;30;20195;-81
2022/12/24 04:06:56;;;;;;;12.43;2.93;;;;;;;8.79;98.74;95265.47;4788224;29;20215;-81
2022/12/24 04:09:21;;;;;;;13.37;3.07;;;;;;;8.87;97.92;95263.97;4787727;30;20583;-81
2022/12/24 04:11:47;;;;;;;13.83;3.17;;;;;;;8.95;97.88;95277.81;4788017;30;20207;-79
2022/12/24 04:14:12;;;;;;;11.90;2.93;;;;;;;8.93;97.95;95278.94;4782042;30;20203;-81
2022/12/24 04:16:37;;;;;;;15.53;2.97;;;;;;;8.93;98.21;95282.34;4786006;29;20601;-80
2022/12/24 04:19:02;;;;;;;13.20;2.73;;;;;;;9.01;97.72;95284.19;4787116;30;20199;-81
2022/12/24 04:21:28;;;;;;;13.70;2.77;;;;;;;8.83;98.10;95286.72;4786894;30;20203;-80
2022/12/24 04:23:53;;;;;;;11.87;3.37;;;;;;;8.75;98.60;95279.69;4787141;30;20207;-80
2022/12/24 04:26:18;;;;;;;14.27;2.73;;;;;;;8.74;98.51;95274.63;4783864;29;20220;-80
2022/12/24 04:28:44;;;;;;;14.37;2.90;;;;;;;8.69;98.53;95266.50;4773010;30;20207;-79
2022/12/24 04:31:13;;;;;;;13.33;2.80;;;;;;;8.68;97.97;95281.22;4782230;30;20207;-80
2022/12/24 04:33:39;;;;;;;12.67;3.67;;;;;;;8.69;97.19;95267.31;4785754;30;20346;-81
2022/12/24 04:36:05;;;;;;;12.93;2.70;;;;;;;8.64;96.10;95274.66;4786511;30;20690;-81
2022/12/24 04:38:31;;;;;;;14.03;2.87;;;;;;;8.78;94.43;95297.50;4782947;30;20306;-80
2022/12/24 04:41:27;;;;;;;10.93;2.50;;;;;;;8.85;94.57;95302.13;4794792;29;20677;-81
2022/12/24 04:43:53;;;;;;;12.67;2.77;;;;;;;8.76;94.70;95291.69;4785604;30;20215;-80
2022/12/24 04:46:22;;;;;;;10.50;2.60;;;;;;;8.77;94.91;95293.31;4797354;29;20215;-81
2022/12/24 04:48:49;;;;;;;13.90;3.03;;;;;;;8.77;94.52;95297.66;4799100;29;20234;-80
2022/12/24 04:51:15;;;;;;;14.00;2.90;;;;;;;8.78;94.72;95299.28;4785487;30;20207;-80
2022/12/24 04:53:41;;;;;;;15.97;2.80;;;;;;;8.88;94.29;95307.84;4770675;30;20224;-79
2022/12/24 04:56:11;;;;;;;10.37;2.83;;;;;;;8.87;94.37;95305.38;4780246;29;20625;-81
2022/12/24 04:58:36;;;;;;;12.83;2.37;;;;;;;8.82;93.81;95313.56;4769049;30;20206;-78
2022/12/24 05:01:06;;;;;;;13.23;2.97;;;;;;;8.77;93.97;95321.78;4772219;30;20195;-82
2022/12/24 05:03:31;;;;;;;11.93;2.77;;;;;;;8.80;94.14;95318.09;4785486;29;20199;-80
2022/12/24 05:06:02;;;;;;;11.37;2.87;;;;;;;8.74;95.17;95314.28;4769858;30;20221;-80
2022/12/24 05:08:27;;;;;;;14.33;2.50;;;;;;;8.71;93.94;95311.97;4785142;30;20286;-81
2022/12/24 05:10:57;;;;;;;11.00;2.73;;;;;;;8.70;93.92;95322.47;4785566;30;20303;-81
2022/12/24 05:13:23;;;;;;;20.70;3.53;;;;;;;8.70;93.91;95327.66;4770148;30;20707;-81
2022/12/24 05:15:48;;;;;;;10.83;3.10;;;;;;;8.64;93.59;95323.03;4783945;29;20231;-81
2022/12/24 05:18:14;;;;;;;12.93;3.03;;;;;;;8.55;93.39;95316.94;4784543;30;20214;-80
2022/12/24 05:20:42;;;;;;;10.40;2.50;;;;;;;8.58;92.64;95315.84;4784403;30;20210;-80
2022/12/24 05:26:34;;;;;;;13.07;2.83;;;;;;;8.62;92.72;95309.44;4783023;29;20289;-81
2022/12/24 05:29:00;;;;;;;12.33;2.67;;;;;;;8.57;92.07;95315.03;4770103;30;20264;-81
2022/12/24 05:31:28;;;;;;;12.07;3.00;;;;;;;8.60;91.37;95313.94;4787866;30;20199;-80
2022/12/24 05:33:53;;;;;;;17.93;3.20;;;;;;;8.66;90.92;95309.03;4788194;30;20202;-81
2022/12/24 05:36:19;;;;;;;15.00;3.70;;;;;;;8.62;91.41;95312.84;4787160;29;20219;-80
2022/12/24 05:38:44;;;;;;;14.47;3.10;;;;;;;8.61;91.48;95318.16;4798510;29;20191;-80
2022/12/24 05:41:09;;;;;;;12.80;2.67;;;;;;;8.62;91.11;95317.19;4787603;30;20740;-81
2022/12/24 05:43:36;;;;;;;18.23;3.10;;;;;;;8.57;91.56;95328.00;4787672;30;20200;-80
2022/12/24 05:46:04;;;;;;;12.30;2.83;;;;;;;8.41;91.19;95325.16;4768788;30;20215;-81
2022/12/24 05:48:29;;;;;;;14.33;3.13;;;;;;;8.47;91.23;95325.41;4785218;30;20211;-81
2022/12/24 05:50:55;;;;;;;16.50;2.60;;;;;;;8.48;91.24;95315.84;4787475;29;20210;-80
2022/12/24 05:53:21;;;;;;;16.43;3.00;;;;;;;8.44;91.42;95323.09;4800985;29;20233;-82
2022/12/24 05:55:46;;;;;;;14.00;2.97;;;;;;;8.40;91.46;95321.75;4786814;29;20230;-83
2022/12/24 05:58:12;;;;;;;16.90;3.47;;;;;;;8.43;91.66;95324.06;4787603;30;20191;-80
2022/12/24 06:00:37;;;;;;;12.50;3.17;;;;;;;8.47;91.28;95316.81;4787084;29;20206;-81
2022/12/24 06:03:02;;;;;;;14.87;3.30;;;;;;;8.45;91.57;95326.50;4774633;30;20203;-80
2022/12/24 06:05:28;;;;;;;17.77;3.03;;;;;;;8.36;91.67;95335.09;4785730;29;20332;-80
2022/12/24 06:07:53;;;;;;;13.63;3.93;;;;;;;8.40;91.26;95347.63;4797968;29;20272;-81
2022/12/24 06:10:18;;;;;;;14.20;3.40;;;;;;;8.49;91.22;95338.22;4787041;30;20253;-81
2022/12/24 06:12:44;;;;;;;12.43;2.87;;;;;;;8.45;91.56;95332.50;4787230;30;20727;-80
2022/12/24 06:15:10;;;;;;;13.27;2.73;;;;;;;8.49;91.56;95340.81;4785032;29;20291;-81
2022/12/24 06:17:35;;;;;;;14.90;4.03;;;;;;;8.41;91.28;95344.09;4787016;29;20276;-80
2022/12/24 06:20:00;;;;;;;10.03;2.97;;;;;;;8.46;91.30;95354.00;4787110;30;20207;-81
2022/12/24 06:22:25;;;;;;;10.40;2.60;;;;;;;8.49;91.05;95345.97;4781677;30;20211;-80
2022/12/24 06:24:51;;;;;;;15.47;2.90;;;;;;;8.56;90.62;95356.56;4788100;30;20210;-82
2022/12/24 06:27:16;;;;;;;15.60;3.07;;;;;;;8.46;91.24;95360.00;4773349;30;20223;-82
2022/12/24 06:29:41;;;;;;;13.50;3.80;;;;;;;8.50;91.35;95368.31;4776179;30;20215;-81
2022/12/24 06:32:07;;;;;;;12.03;3.43;;;;;;;8.56;91.13;95372.09;4787633;30;20203;-81
2022/12/24 06:34:32;;;;;;;15.43;2.67;;;;;;;8.54;91.30;95371.44;4784104;30;20672;-79
2022/12/24 06:36:57;;;;;;;13.93;3.30;;;;;;;8.53;91.35;95365.44;4786708;29;20712;-82
2022/12/24 06:39:22;;;;;;;11.57;2.97;;;;;;;8.65;90.89;95372.06;4787079;29;20206;-82
2022/12/24 06:41:48;;;;;;;12.63;3.50;;;;;;;8.56;91.43;95372.91;4786841;30;20199;-81
2022/12/24 06:44:13;;;;;;;23.47;7.43;;;;;;;8.50;91.61;95369.13;4771511;30;20272;-81
2022/12/24 06:46:38;;;;;;;22.43;7.90;;;;;;;8.53;91.38;95373.19;4785934;29;20763;-81
2022/12/24 06:49:04;;;;;;;22.13;9.37;;;;;;;8.43;91.99;95378.41;4777980;30;20200;-81
2022/12/24 06:51:29;;;;;;;20.37;8.87;;;;;;;8.51;91.49;95388.88;4786152;30;20303;-82
2022/12/24 06:53:54;;;;;;;13.97;3.63;;;;;;;8.45;91.89;95375.66;4786873;30;20199;-81
2022/12/24 06:56:20;;;;;;;17.63;3.67;;;;;;;8.45;92.28;95380.84;4785918;30;20601;-80
2022/12/24 06:58:45;;;;;;;11.43;2.77;;;;;;;8.41;92.67;95382.09;4786161;30;20676;-81
2022/12/24 07:01:13;;;;;;;11.47;3.40;;;;;;;8.35;92.89;95377.44;4787492;30;20195;-81
2022/12/24 07:03:38;;;;;;;13.33;3.30;;;;;;;8.26;93.20;95378.25;4782973;30;20200;-81
2022/12/24 07:06:04;;;;;;;14.83;3.53;;;;;;;8.25;93.11;95382.59;4786970;29;20230;-81
2022/12/24 07:08:32;;;;;;;17.63;3.67;;;;;;;8.36;92.51;95389.44;4771465;30;20211;-80
2022/12/24 07:10:58;;;;;;;12.27;5.10;;;;;;;8.40;92.38;95395.97;4771787;30;20348;-81
2022/12/24 07:13:23;;;;;;;13.73;3.63;;;;;;;8.40;92.19;95395.97;4784943;30;20290;-81
2022/12/24 07:15:58;;;;;;;12.47;3.97;;;;;;;8.38;91.42;95405.63;4785193;29;20229;-82
2022/12/24 07:18:24;;;;;;;18.10;3.90;;;;;;;8.35;91.54;95409.31;4786025;30;20203;-81
2022/12/24 07:20:49;;;;;;;18.23;3.80;;;;;;;8.34;91.40;95414.59;4785320;30;20202;-82
2022/12/24 07:23:14;;;;;;;12.50;2.70;;;;;;;8.42;91.40;95419.94;4785927;30;20199;-80
2022/12/24 07:25:43;;;;;;;13.97;3.40;;;;;;;8.44;91.30;95429.19;4784994;29;20234;-80
2022/12/24 07:28:08;;;;;;;14.43;3.43;;;;;;;8.47;90.75;95433.28;4785557;30;20406;-81
2022/12/24 07:30:33;;;;;;;17.10;4.13;;;;;;;8.55;90.43;95422.22;4785776;30;20227;-81
2022/12/24 07:32:59;;;;;;;13.33;3.43;;;;;;;8.44;90.27;95430.97;4785890;30;20250;-80
2022/12/24 07:35:24;;;;;;;17.10;3.13;;;;;;;8.50;90.48;95435.59;4794518;29;20206;-81
2022/12/24 07:37:49;;;;;;;14.97;3.80;;;;;;;8.58;90.42;95442.69;4774172;30;20350;-81
2022/12/24 07:40:15;;;;;;;15.40;3.10;;;;;;;8.64;89.74;95437.75;4787502;29;20689;-80
2022/12/24 07:42:40;;;;;;;9.80;2.57;;;;;;;8.54;91.08;95434.34;4787044;29;20430;-81
2022/12/24 07:45:06;;;;;;;13.90;3.00;;;;;;;8.52;91.19;95425.91;4782903;30;20211;-79
2022/12/24 07:47:31;;;;;;;14.80;3.33;;;;;;;8.53;92.28;95427.56;4785081;29;20712;-80
2022/12/24 07:49:56;;;;;;;18.47;3.63;;;;;;;8.57;92.50;95418.56;4784817;30;20340;-80
2022/12/24 07:52:22;;;;;;;12.30;3.53;;;;;;;8.53;92.46;95422.38;4799026;29;20211;-82
2022/12/24 07:54:47;;;;;;;11.97;3.57;;;;;;;8.55;92.22;95438.56;4783894;30;20191;-80
2022/12/24 07:57:12;;;;;;;12.10;3.33;;;;;;;8.56;91.60;95434.22;4784853;29;20231;-80
2022/12/24 07:59:38;;;;;;;15.33;3.43;;;;;;;8.58;91.82;95440.91;4788664;29;20199;-81
2022/12/24 08:02:03;;;;;;;17.20;3.37;;;;;;;8.47;91.94;95439.25;4783466;30;20233;-80
2022/12/24 08:04:31;;;;;;;15.43;3.33;;;;;;;8.41;91.77;95432.06;4784628;29;20816;-80
2022/12/24 08:06:56;;;;;;;12.47;3.00;;;;;;;8.39;92.13;95452.09;4784270;29;20215;-81
2022/12/24 08:09:21;;;;;;;16.77;3.83;;;;;;;8.58;91.33;95450.44;4771111;30;20204;-80
2022/12/24 08:11:47;;;;;;;12.20;3.27;;;;;;;8.55;91.25;95445.53;4784692;30;20203;-80
2022/12/24 08:14:12;;;;;;;12.43;3.73;;;;;;;8.49;91.02;95441.75;4784555;30;20311;-80
2022/12/24 08:16:37;;;;;;;11.13;2.97;;;;;;;8.45;91.29;95453.31;4783904;29;20227;-80
2022/12/24 08:19:02;;;;;;;16.97;3.60;;;;;;;8.58;90.72;95458.22;4784530;30;20803;-81
2022/12/24 08:21:28;;;;;;;10.63;2.93;;;;;;;8.48;90.95;95460.78;4785014;30;20201;-81
2022/12/24 08:23:53;;;;;;;13.70;3.27;;;;;;;8.46;90.80;95473.03;4784293;30;20211;-82
2022/12/24 08:26:18;;;;;;;11.97;3.43;;;;;;;8.49;91.42;95471.03;4783924;29;20571;-81
2022/12/24 08:28:44;;;;;;;13.03;3.37;;;;;;;8.58;90.35;95463.41;4782930;30;20211;-81
2022/12/24 08:31:09;;;;;;;16.33;3.20;;;;;;;8.62;90.27;95465.56;4792506;29;20207;-80
2022/12/24 08:33:34;;;;;;;15.43;2.80;;;;;;;8.55;90.04;95472.22;4772861;30;20203;-84
2022/12/24 08:36:00;;;;;;;11.50;2.83;;;;;;;8.49;89.50;95472.78;4783864;30;20593;-82
2022/12/24 08:38:26;;;;;;;12.07;3.30;;;;;;;8.67;88.79;95475.50;4785303;30;20199;-81
2022/12/24 08:40:52;;;;;;;12.93;3.77;;;;;;;8.67;89.42;95481.50;4782521;30;20230;-83
2022/12/24 08:43:18;;;;;;;9.73;2.50;;;;;;;8.56;90.53;95476.44;4785019;30;20191;-82
2022/12/24 08:45:44;;;;;;;13.93;2.77;;;;;;;8.82;88.96;95474.09;4769534;29;20229;-83
2022/12/24 08:48:09;;;;;;;16.10;3.37;;;;;;;8.59;90.31;95477.97;4785321;30;20199;-83
2022/12/24 08:50:38;;;;;;;21.03;4.77;;;;;;;8.57;90.62;95485.03;4781925;30;20281;-80
2022/12/24 08:53:03;;;;;;;30.13;11.20;;;;;;;8.50;90.67;95477.00;4784473;30;20206;-83
2022/12/24 08:55:28;;;;;;;22.13;6.90;;;;;;;8.57;90.37;95480.69;4784327;29;20671;-83
2022/12/24 08:57:53;;;;;;;22.47;5.40;;;;;;;8.46;90.83;95496.34;4778855;30;20336;-82
2022/12/24 09:00:19;;;;;;;24.90;6.03;;;;;;;8.59;90.33;95493.50;4784947;30;20198;-81
2022/12/24 09:02:44;;;;;;;18.20;5.37;;;;;;;8.67;90.13;95501.41;4781698;29;20199;-85
2022/12/24 09:05:09;;;;;;;13.80;4.40;;;;;;;8.66;90.35;95510.94;4788583;29;20207;-82
2022/12/24 09:07:35;;;;;;;22.07;7.03;;;;;;;8.69;90.02;95508.06;4789870;30;20629;-83
2022/12/24 09:10:00;;;;;;;17.60;5.13;;;;;;;8.77;90.06;95522.91;4789483;30;20207;-84
2022/12/24 09:12:25;;;;;;;20.80;5.30;;;;;;;8.92;88.99;95520.72;4791601;30;20661;-83
2022/12/24 09:14:51;;;;;;;15.50;3.27;;;;;;;8.88;89.05;95524.53;4790209;30;20210;-84
2022/12/24 09:17:16;;;;;;;19.83;4.10;;;;;;;8.99;88.87;95526.97;4790556;29;20262;-83
2022/12/24 09:19:42;;;;;;;14.60;3.40;;;;;;;9.03;88.76;95525.75;4790988;30;20222;-83
2022/12/24 09:22:07;;;;;;;13.13;4.17;;;;;;;9.07;88.49;95527.91;4782117;30;20207;-83
2022/12/24 09:24:34;;;;;;;18.93;3.93;;;;;;;9.05;88.61;95532.44;4792857;30;20203;-83
2022/12/24 09:27:01;;;;;;;15.57;3.67;;;;;;;9.19;87.86;95540.72;4789019;29;20247;-84
2022/12/24 09:29:26;;;;;;;14.23;3.47;;;;;;;9.17;87.21;95538.25;4791414;30;20249;-82
2022/12/24 09:31:53;;;;;;;16.50;3.57;;;;;;;9.29;87.03;95539.75;4789822;30;20196;-84
2022/12/24 09:34:19;;;;;;;14.40;3.27;;;;;;;9.24;86.73;95539.34;4794330;30;20199;-85
2022/12/24 09:36:45;;;;;;;17.97;3.90;;;;;;;9.17;87.18;95543.44;4795615;29;20300;-84
2022/12/24 09:39:10;;;;;;;13.37;3.43;;;;;;;9.17;87.63;95551.22;4793215;29;20278;-82
2022/12/24 09:41:38;;;;;;;20.67;4.90;;;;;;;9.23;87.77;95547.25;4794592;30;20229;-84
2022/12/24 09:44:34;;;;;;;23.90;9.67;;;;;;;9.43;86.69;95550.63;4794331;30;20218;-84
2022/12/24 09:47:03;;;;;;;14.80;4.47;;;;;;;9.67;86.13;95547.56;4797983;29;20252;-83
2022/12/24 09:49:41;;;;;;;15.43;4.07;;;;;;;9.86;85.87;95540.50;4795152;30;20219;-83
2022/12/24 09:52:09;;;;;;;10.50;4.00;;;;;;;9.86;85.89;95548.28;4795416;30;20195;-83
2022/12/24 09:54:38;;;;;;;16.13;3.53;;;;;;;9.82;86.42;95539.19;4794820;30;20187;-84
2022/12/24 09:57:07;;;;;;;11.27;2.90;;;;;;;10.16;84.69;95543.81;4793588;29;20588;-84
2022/12/24 09:59:41;;;;;;;21.80;3.93;;;;;;;10.21;83.40;95547.56;4793633;29;20589;-83
2022/12/24 10:02:12;;;;;;;13.97;3.70;;;;;;;10.37;82.80;95543.56;4793554;30;20195;-82
2022/12/24 10:04:38;;;;;;;12.87;3.43;;;;;;;10.58;82.33;95543.28;4806423;29;20204;-84
2022/12/24 10:07:36;;;;;;;15.83;4.00;;;;;;;10.68;81.67;95541.44;4791541;29;20745;-83
2022/12/24 10:10:07;;;;;;;17.13;4.43;;;;;;;10.69;80.96;95546.50;4790817;30;20789;-84
2022/12/24 10:12:45;;;;;;;13.13;3.97;;;;;;;10.81;81.03;95549.69;4789313;30;20205;-82
2022/12/24 10:15:16;;;;;;;10.20;3.67;;;;;;;11.07;80.80;95560.94;4786582;29;20218;-84
2022/12/24 10:18:01;;;;;;;16.23;3.50;;;;;;;10.95;80.74;95558.72;4789197;29;20242;-84
2022/12/24 10:20:31;;;;;;;13.67;3.93;;;;;;;10.96;81.38;95561.19;4789260;30;20198;-83
2022/12/24 10:23:16;;;;;;;13.23;4.67;;;;;;;10.87;81.86;95572.47;4789582;30;20204;-84
2022/12/24 10:26:06;;;;;;;11.07;3.73;;;;;;;10.68;82.88;95568.22;4804330;29;20549;-83
2022/12/24 10:29:01;;;;;;;14.10;4.20;;;;;;;10.49;83.50;95574.34;4792439;30;20274;-85
2022/12/24 10:31:35;;;;;;;13.23;4.50;;;;;;;10.36;84.38;95573.91;4796271;30;20194;-82
2022/12/24 10:34:02;;;;;;;16.00;4.37;;;;;;;10.27;84.69;95573.97;4791537;30;20195;-84
2022/12/24 10:36:29;;;;;;;13.07;4.40;;;;;;;10.17;84.30;95561.00;4793059;29;20223;-83
2022/12/24 10:38:54;;;;;;;12.23;3.30;;;;;;;10.08;84.25;95569.66;4794753;30;20732;-84
2022/12/24 10:41:20;;;;;;;13.63;3.40;;;;;;;10.11;83.99;95562.38;4794469;30;20228;-84
2022/12/24 10:43:46;;;;;;;10.87;3.00;;;;;;;10.29;83.66;95569.44;4793584;30;20195;-84
2022/12/24 10:46:18;;;;;;;13.73;3.20;;;;;;;10.30;83.92;95571.88;4794332;29;20226;-84
2022/12/24 10:49:05;;;;;;;12.90;4.53;;;;;;;10.27;83.41;95574.78;4794056;30;20254;-84
2022/12/24 10:51:37;;;;;;;14.93;5.17;;;;;;;10.12;83.57;95577.00;4781369;30;20255;-84
2022/12/24 10:54:10;;;;;;;14.60;4.00;;;;;;;10.09;83.47;95564.31;4796074;30;20749;-84
2022/12/24 10:56:41;;;;;;;23.57;9.37;;;;;;;9.86;83.58;95553.47;4798550;29;20307;-82
2022/12/24 10:59:22;;;;;;;19.97;7.10;;;;;;;10.00;83.49;95559.19;4794145;29;20191;-85
2022/12/24 11:01:48;;;;;;;18.87;5.87;;;;;;;9.97;83.52;95562.03;4795337;30;20202;-83
2022/12/24 11:04:19;;;;;;;20.27;4.90;;;;;;;9.84;84.32;95568.38;4796850;30;20207;-84
2022/12/24 11:06:53;;;;;;;9.77;4.33;;;;;;;9.88;83.76;95574.91;4780585;30;20257;-84
2022/12/24 11:09:35;;;;;;;25.50;11.70;;;;;;;9.82;83.88;95570.31;4792920;30;20254;-81
2022/12/24 11:12:03;;;;;;;30.60;12.97;;;;;;;9.84;84.35;95572.75;4775366;30;20252;-82
2022/12/24 11:14:34;;;;;;;22.27;10.07;;;;;;;9.85;84.70;95582.97;4789969;29;20187;-83
2022/12/24 11:16:59;;;;;;;28.87;10.30;;;;;;;9.80;85.05;95582.56;4787861;29;20655;-82
2022/12/24 11:19:33;;;;;;;18.43;5.20;;;;;;;9.90;84.94;95587.75;4774809;30;20187;-83
2022/12/24 11:22:02;;;;;;;15.73;3.90;;;;;;;9.79;85.38;95591.31;4790145;30;20190;-83
2022/12/24 11:24:34;;;;;;;15.33;3.77;;;;;;;9.50;84.90;95585.41;4789912;30;20461;-83
2022/12/24 11:27:24;;;;;;;20.67;3.80;;;;;;;9.74;83.89;95585.75;4818297;29;20230;-82
2022/12/24 11:29:49;;;;;;;13.40;3.30;;;;;;;9.60;85.11;95588.78;4810424;29;20293;-81
2022/12/24 11:32:18;;;;;;;12.17;3.60;;;;;;;9.54;85.16;95591.94;4810234;29;20179;-83
2022/12/24 11:34:43;;;;;;;14.90;3.33;;;;;;;9.59;84.64;95582.78;4801671;30;20188;-83
2022/12/24 11:37:14;;;;;;;28.60;12.43;;;;;;;9.73;84.61;95578.13;4793373;29;20227;-83
2022/12/24 11:39:44;;;;;;;16.30;3.37;;;;;;;9.61;85.44;95585.22;4776624;30;20195;-82
2022/12/24 11:42:24;;;;;;;13.77;3.67;;;;;;;9.63;86.05;95580.75;4807749;29;20191;-83